createdAt,value
2024-01-03T00:01:04.591Z,4.88
2024-01-03T00:06:07.197Z,3.55
2024-01-03T00:11:09.084Z,5.15
2024-01-03T00:16:19.804Z,5.07
2024-01-03T00:21:26.164Z,4.90
2024-01-03T00:26:29.096Z,5.75
2024-01-03T00:31:43.596Z,4.95
2024-01-03T00:36:47.692Z,3.80
2024-01-03T00:41:49.624Z,3.85
2024-01-03T00:46:55.249Z,4.23
2024-01-03T00:51:57.044Z,5.43
2024-01-03T00:56:59.264Z,4.82
2024-01-03T01:02:00.915Z,5.88
2024-01-03T01:07:03.151Z,5.05
2024-01-03T01:12:04.969Z,4.23
2024-01-03T01:17:06.808Z,3.90
2024-01-03T01:22:08.634Z,4.30
2024-01-03T01:27:10.310Z,4.35
2024-01-03T01:32:14.411Z,4.22
2024-01-03T01:37:17.212Z,3.70
2024-01-03T01:42:19.036Z,4.03
2024-01-03T01:47:20.890Z,4.07
2024-01-03T01:52:23.530Z,4.60
2024-01-03T01:57:25.710Z,4.25
2024-01-03T02:02:27.487Z,4.33
2024-01-03T02:07:31.225Z,3.55
2024-01-03T02:12:33.179Z,3.70
2024-01-03T02:17:35.439Z,3.50
2024-01-03T02:22:37.501Z,3.60
2024-01-03T02:27:39.425Z,3.00
2024-01-03T02:32:41.249Z,3.43
2024-01-03T02:37:42.945Z,2.88
2024-01-03T02:42:44.879Z,3.33
2024-01-03T02:47:47.089Z,3.10
2024-01-03T02:52:48.977Z,2.30
2024-01-03T02:57:50.661Z,3.08
2024-01-03T03:02:52.366Z,1.98
2024-01-03T03:07:54.436Z,1.95
2024-01-03T03:12:56.072Z,1.60
2024-01-03T03:17:57.893Z,1.30
2024-01-03T03:23:00.140Z,1.75
2024-01-03T03:28:02.062Z,1.35
2024-01-03T03:33:03.945Z,0.90
2024-01-03T03:38:05.992Z,1.13
2024-01-03T03:43:07.911Z,1.40
2024-01-03T03:48:10.559Z,1.42
2024-01-03T03:53:12.347Z,0.95
2024-01-03T03:58:14.039Z,1.10
2024-01-03T04:03:15.858Z,0.95
2024-01-03T04:08:17.922Z,1.10
2024-01-03T04:13:19.668Z,1.17
2024-01-03T04:18:21.615Z,0.45
2024-01-03T04:23:23.724Z,0.40
2024-01-03T04:28:25.516Z,0.40
2024-01-03T04:33:27.454Z,0.50
2024-01-03T04:38:29.314Z,0.60
2024-01-03T04:43:31.027Z,0.60
2024-01-03T04:48:32.709Z,0.77
2024-01-03T04:53:35.093Z,0.70
2024-01-03T04:58:36.957Z,0.90
2024-01-03T05:03:38.591Z,0.80
2024-01-03T05:08:40.296Z,0.77
2024-01-03T05:13:42.061Z,1.00
2024-01-03T05:18:44.253Z,1.00
2024-01-03T05:23:46.019Z,0.77
2024-01-03T05:28:47.729Z,1.10
2024-01-03T05:33:49.501Z,0.90
2024-01-03T05:38:51.316Z,0.75
2024-01-03T05:43:53.319Z,1.02
2024-01-03T05:48:55.268Z,1.10
2024-01-03T05:53:57.123Z,1.80
2024-01-03T05:58:58.843Z,1.30
2024-01-03T06:04:01.129Z,1.50
2024-01-03T06:09:03.439Z,1.40
2024-01-03T06:14:05.240Z,1.50
2024-01-03T06:19:07.112Z,1.50
2024-01-03T06:24:09.232Z,1.70
2024-01-03T06:29:13.128Z,1.70
2024-01-03T06:34:15.491Z,1.60
2024-01-03T06:39:18.148Z,2.10
2024-01-03T06:49:22.425Z,2.20
2024-01-03T06:54:24.093Z,2.60
2024-01-03T06:59:26.041Z,1.58
2024-01-03T07:04:27.770Z,2.47
2024-01-03T07:09:31.471Z,3.37
2024-01-03T07:14:33.314Z,2.40
2024-01-03T07:19:35.413Z,1.38
2024-01-03T07:24:37.371Z,1.63
2024-01-03T07:29:39.162Z,1.70
2024-01-03T07:34:40.990Z,2.58
2024-01-03T07:39:42.662Z,1.67
2024-01-03T07:44:44.351Z,1.52
2024-01-03T07:49:46.056Z,1.40
2024-01-03T07:54:47.844Z,2.00
2024-01-03T07:59:49.574Z,2.03
2024-01-03T08:04:51.531Z,1.83
2024-01-03T08:09:53.455Z,1.85
2024-01-03T08:14:55.272Z,1.37
2024-01-03T08:19:57.346Z,1.67
2024-01-03T08:25:02.232Z,1.40
2024-01-03T08:30:05.492Z,1.30
2024-01-03T08:40:10.578Z,1.30
2024-01-03T08:45:12.433Z,1.17
2024-01-03T08:50:14.475Z,1.27
2024-01-03T08:55:16.194Z,1.60
2024-01-03T09:00:18.343Z,1.70
2024-01-03T09:05:19.989Z,1.83
2024-01-03T09:10:21.687Z,1.80
2024-01-03T09:15:23.515Z,1.77
2024-01-03T09:20:25.233Z,1.88
2024-01-03T09:25:26.909Z,1.75
2024-01-03T09:30:28.654Z,1.70
2024-01-03T09:35:30.437Z,1.70
2024-01-03T09:40:32.564Z,1.88
2024-01-03T09:45:34.576Z,1.90
2024-01-03T09:50:36.827Z,1.87
2024-01-03T09:55:39.394Z,1.52
2024-01-03T10:00:41.086Z,1.30
2024-01-03T10:05:42.870Z,1.33
2024-01-03T10:10:45.629Z,1.48
2024-01-03T10:15:48.238Z,1.30
2024-01-03T10:20:51.236Z,1.48
2024-01-03T10:25:56.823Z,1.77
2024-01-03T10:30:58.888Z,1.35
2024-01-03T10:36:09.210Z,1.85
2024-01-03T10:41:10.804Z,2.05
2024-01-03T10:46:12.806Z,1.98
2024-01-03T10:51:15.226Z,2.27
2024-01-03T10:56:18.049Z,1.70
2024-01-03T11:06:48.224Z,1.73
2024-01-03T11:11:49.976Z,1.80
2024-01-03T11:16:51.865Z,1.90
2024-01-03T11:21:53.629Z,2.53
2024-01-03T11:26:55.562Z,1.88
2024-01-03T11:31:58.754Z,2.03
2024-01-03T11:37:00.471Z,1.48
2024-01-03T11:42:03.331Z,0.95
2024-01-03T11:52:06.627Z,1.20
2024-01-03T11:57:08.603Z,1.42
2024-01-03T12:02:12.767Z,1.30
2024-01-03T12:07:14.494Z,1.45
2024-01-03T12:12:16.163Z,1.95
2024-01-03T12:17:24.386Z,2.13
2024-01-03T12:22:26.066Z,1.63
2024-01-03T12:27:27.965Z,2.35
2024-01-03T12:32:29.710Z,2.50
2024-01-03T12:37:35.080Z,2.33
2024-01-03T12:42:42.627Z,2.30
2024-01-03T12:47:49.257Z,1.83
2024-01-03T12:52:51.960Z,2.13
2024-01-03T12:57:53.985Z,2.42
2024-01-03T13:02:56.102Z,2.60
2024-01-03T13:07:57.968Z,2.13
2024-01-03T13:12:59.621Z,2.67
2024-01-03T13:18:01.372Z,2.70
2024-01-03T13:23:03.185Z,2.05
2024-01-03T13:28:05.852Z,2.67
2024-01-03T13:33:07.915Z,1.85
2024-01-03T13:38:10.108Z,1.60
2024-01-03T13:43:12.759Z,1.85
2024-01-03T13:48:17.483Z,1.83
2024-01-03T13:53:20.576Z,1.73
2024-01-03T13:58:22.680Z,2.28
2024-01-03T14:03:26.764Z,1.67
2024-01-03T14:08:30.211Z,1.60
2024-01-03T14:13:32.404Z,1.83
2024-01-03T14:18:34.765Z,1.83
2024-01-03T14:23:38.068Z,1.80
2024-01-03T14:28:40.639Z,1.60
2024-01-03T14:33:43.726Z,1.50
2024-01-03T14:38:45.599Z,2.00
2024-01-03T14:43:50.907Z,2.45
2024-01-03T14:48:57.706Z,2.00
2024-01-03T14:54:02.185Z,2.25
2024-01-03T14:59:09.157Z,2.53
2024-01-03T15:04:11.797Z,2.75
2024-01-03T15:09:13.816Z,2.10
2024-01-03T15:14:17.494Z,2.37
2024-01-03T15:19:20.091Z,2.15
2024-01-03T15:24:22.011Z,2.13
2024-01-03T15:29:23.967Z,2.10
2024-01-03T15:34:26.895Z,1.27
2024-01-03T15:39:28.762Z,2.90
2024-01-03T15:44:30.513Z,2.22
2024-01-03T15:49:32.388Z,2.58
2024-01-03T15:54:42.185Z,2.75
2024-01-03T15:59:50.103Z,2.88
2024-01-03T16:04:51.958Z,2.60
2024-01-03T16:09:53.799Z,2.67
2024-01-03T16:14:56.338Z,2.50
2024-01-03T16:19:59.233Z,3.22
2024-01-03T16:25:00.913Z,2.97
2024-01-03T16:30:02.679Z,2.85
2024-01-03T16:35:04.746Z,3.05
2024-01-03T16:40:06.932Z,2.60
2024-01-03T16:45:10.731Z,2.87
2024-01-03T16:50:12.390Z,2.50
2024-01-03T16:55:16.169Z,2.22
2024-01-03T17:00:17.996Z,2.90
2024-01-03T17:05:19.870Z,3.13
2024-01-03T17:10:21.658Z,2.22
2024-01-03T17:15:23.601Z,2.87
2024-01-03T17:20:26.746Z,6.93
2024-01-03T17:25:28.402Z,6.75
2024-01-03T17:30:30.247Z,3.00
2024-01-03T17:35:32.334Z,3.83
2024-01-03T17:40:34.254Z,3.00
2024-01-03T17:45:36.069Z,3.45
2024-01-03T17:50:37.786Z,2.72
2024-01-03T17:55:39.597Z,3.53
2024-01-03T18:00:41.292Z,3.05
2024-01-03T18:05:43.530Z,3.40
2024-01-03T18:10:46.766Z,3.10
2024-01-03T18:15:50.313Z,3.72
2024-01-03T18:20:52.179Z,3.73
2024-01-03T18:25:54.082Z,3.77
2024-01-03T18:30:55.826Z,4.15
2024-01-03T18:35:57.848Z,4.18
2024-01-03T18:40:59.699Z,4.37
2024-01-03T18:46:01.433Z,3.88
2024-01-03T18:51:03.148Z,3.30
2024-01-03T18:56:05.145Z,3.38
2024-01-03T19:01:06.923Z,3.50
2024-01-03T19:06:11.966Z,5.03
2024-01-03T19:11:16.773Z,4.18
2024-01-03T19:16:26.662Z,5.75
2024-01-03T19:21:31.690Z,6.00
2024-01-03T19:26:34.407Z,3.70
2024-01-03T19:31:37.351Z,4.05
2024-01-03T19:36:39.635Z,3.17
2024-01-03T19:41:41.821Z,3.70
2024-01-03T19:46:43.581Z,2.85
2024-01-03T19:51:50.185Z,2.25
2024-01-03T19:56:53.003Z,2.08
2024-01-03T20:01:55.915Z,2.28
2024-01-03T20:06:57.929Z,1.90
2024-01-03T20:11:59.793Z,2.30
2024-01-03T20:17:02.130Z,2.63
2024-01-03T20:22:11.979Z,2.28
2024-01-03T20:27:21.221Z,2.67
2024-01-03T20:32:23.729Z,2.60
2024-01-03T20:37:33.767Z,2.47
2024-01-03T20:42:36.281Z,2.50
2024-01-03T20:47:38.280Z,2.20
2024-01-03T20:52:44.482Z,1.90
2024-01-03T20:57:49.327Z,2.22
2024-01-03T21:02:54.047Z,2.38
2024-01-03T21:07:56.542Z,2.33
2024-01-03T21:12:59.238Z,2.65
2024-01-03T21:18:03.823Z,2.22
2024-01-03T21:23:08.205Z,1.85
2024-01-03T21:28:12.553Z,1.52
2024-01-03T21:33:17.792Z,1.40
2024-01-03T21:38:20.246Z,1.85
2024-01-03T21:43:22.079Z,2.13
2024-01-03T21:48:23.910Z,1.90
2024-01-03T21:53:27.355Z,1.70
2024-01-03T21:58:29.312Z,1.37
2024-01-03T22:03:31.655Z,1.50
2024-01-03T22:08:35.246Z,1.58
2024-01-03T22:13:37.119Z,1.40
2024-01-03T22:18:39.366Z,1.38
2024-01-03T22:23:41.564Z,1.47
2024-01-03T22:28:43.297Z,1.93
2024-01-03T22:33:45.452Z,1.92
2024-01-03T22:38:48.458Z,1.88
2024-01-03T22:43:51.364Z,1.50
2024-01-03T22:53:54.904Z,1.90
2024-01-03T22:58:56.740Z,1.75
2024-01-03T23:03:58.641Z,1.70
2024-01-03T23:09:00.413Z,1.83
2024-01-03T23:14:02.122Z,2.03
2024-01-03T23:19:04.134Z,1.95
2024-01-03T23:24:06.175Z,2.47
2024-01-03T23:29:08.026Z,2.20
2024-01-03T23:34:09.849Z,1.67
2024-01-03T23:39:11.735Z,1.35
2024-01-03T23:44:13.592Z,1.65
2024-01-03T23:49:15.520Z,1.48
2024-01-03T23:54:17.447Z,1.70
2024-01-03T23:59:19.188Z,2.47
